createdAt,value
2023-04-16T00:00:43.398Z,101728.66
2023-04-16T00:03:09.937Z,101734.47
2023-04-16T00:05:36.444Z,101724.88
2023-04-16T00:08:03.034Z,101731.44
2023-04-16T00:10:29.333Z,101742.50
2023-04-16T00:12:55.629Z,101740.34
2023-04-16T00:15:22.008Z,101739.63
2023-04-16T00:17:48.366Z,101738.88
2023-04-16T00:20:14.725Z,101738.97
2023-04-16T00:22:40.993Z,101746.63
2023-04-16T00:25:07.451Z,101741.44
2023-04-16T00:27:33.980Z,101753.19
2023-04-16T00:30:00.457Z,101744.69
2023-04-16T00:32:26.800Z,101753.09
2023-04-16T00:34:53.135Z,101745.88
2023-04-16T00:37:19.461Z,101753.72
2023-04-16T00:39:45.769Z,101755.22
2023-04-16T00:42:12.101Z,101749.44
2023-04-16T00:44:38.530Z,101749.41
2023-04-16T00:47:04.880Z,101748.03
2023-04-16T00:49:31.657Z,101750.94
2023-04-16T00:51:57.950Z,101754.97
2023-04-16T00:54:24.877Z,101746.44
2023-04-16T00:56:51.236Z,101746.09
2023-04-16T00:59:17.723Z,101752.31
2023-04-16T01:01:44.105Z,101749.94
2023-04-16T01:04:10.584Z,101761.63
2023-04-16T01:06:36.961Z,101762.75
2023-04-16T01:09:03.322Z,101763.03
2023-04-16T01:11:29.683Z,101764.41
2023-04-16T01:13:55.996Z,101756.53
2023-04-16T01:16:22.413Z,101768.19
2023-04-16T01:18:48.898Z,101776.09
2023-04-16T01:21:15.352Z,101779.38
2023-04-16T01:23:41.628Z,101762.91
2023-04-16T01:26:07.939Z,101776.63
2023-04-16T01:28:34.218Z,101770.31
2023-04-16T01:31:00.815Z,101781.41
2023-04-16T01:33:27.122Z,101771.16
2023-04-16T01:35:53.436Z,101779.59
2023-04-16T01:38:19.750Z,101784.34
2023-04-16T01:40:46.113Z,101793.72
2023-04-16T01:43:12.662Z,101793.19
2023-04-16T01:45:38.988Z,101776.13
2023-04-16T01:48:05.390Z,101791.63
2023-04-16T01:50:31.866Z,101797.66
2023-04-16T01:52:58.204Z,101790.88
2023-04-16T01:55:24.652Z,101787.56
2023-04-16T01:57:50.958Z,101792.38
2023-04-16T02:00:17.315Z,101795.28
2023-04-16T02:02:43.750Z,101795.06
2023-04-16T02:05:10.163Z,101789.03
2023-04-16T02:07:36.487Z,101789.72
2023-04-16T02:10:04.625Z,101791.25
2023-04-16T02:12:30.941Z,101788.44
2023-04-16T02:14:57.242Z,101797.50
2023-04-16T02:17:23.592Z,101790.94
2023-04-16T02:19:49.928Z,101795.97
2023-04-16T02:22:16.239Z,101800.50
2023-04-16T02:24:42.540Z,101798.03
2023-04-16T02:27:08.950Z,101795.75
2023-04-16T02:29:35.528Z,101801.03
2023-04-16T02:32:01.912Z,101799.28
2023-04-16T02:34:28.208Z,101801.56
2023-04-16T02:36:55.095Z,101802.09
2023-04-16T02:39:21.455Z,101805.31
2023-04-16T02:41:47.798Z,101799.38
2023-04-16T02:44:14.117Z,101803.25
2023-04-16T02:46:40.440Z,101818.75
2023-04-16T02:49:06.823Z,101804.78
2023-04-16T02:51:33.242Z,101823.44
2023-04-16T02:53:59.539Z,101824.41
2023-04-16T02:56:26.177Z,101816.28
2023-04-16T02:58:52.711Z,101829.59
2023-04-16T03:01:19.108Z,101830.03
2023-04-16T03:03:45.587Z,101831.19
2023-04-16T03:06:12.728Z,101827.72
2023-04-16T03:08:39.081Z,101829.88
2023-04-16T03:11:05.352Z,101829.13
2023-04-16T03:13:31.618Z,101834.72
2023-04-16T03:15:58.117Z,101825.88
2023-04-16T03:18:24.510Z,101840.94
2023-04-16T03:20:53.868Z,101840.41
2023-04-16T03:23:20.248Z,101849.03
2023-04-16T03:25:47.973Z,101839.28
2023-04-16T03:28:14.814Z,101843.84
2023-04-16T03:30:41.168Z,101841.31
2023-04-16T03:33:07.446Z,101838.47
2023-04-16T03:35:33.766Z,101848.38
2023-04-16T03:38:00.068Z,101839.97
2023-04-16T03:40:26.395Z,101834.16
2023-04-16T03:42:52.807Z,101841.28
2023-04-16T03:45:19.092Z,101844.25
2023-04-16T03:47:48.473Z,101853.44
2023-04-16T03:50:14.864Z,101857.00
2023-04-16T03:52:41.288Z,101852.47
2023-04-16T03:55:07.946Z,101853.50
2023-04-16T03:57:34.478Z,101853.06
2023-04-16T04:00:00.796Z,101851.34
2023-04-16T04:02:27.277Z,101851.59
2023-04-16T04:04:53.740Z,101844.75
2023-04-16T04:07:20.180Z,101848.50
2023-04-16T04:09:46.495Z,101839.69
2023-04-16T04:12:13.457Z,101842.53
2023-04-16T04:14:40.090Z,101849.22
2023-04-16T04:17:06.751Z,101845.22
2023-04-16T04:19:33.084Z,101855.81
2023-04-16T04:21:59.361Z,101855.00
2023-04-16T04:24:26.240Z,101860.84
2023-04-16T04:26:52.788Z,101854.91
2023-04-16T04:29:19.109Z,101858.47
2023-04-16T04:31:45.625Z,101863.59
2023-04-16T04:34:11.959Z,101865.91
2023-04-16T04:36:38.229Z,101877.69
2023-04-16T04:39:04.525Z,101870.97
2023-04-16T04:41:31.011Z,101881.97
2023-04-16T04:43:57.333Z,101879.53
2023-04-16T04:46:23.699Z,101876.84
2023-04-16T04:48:50.032Z,101870.78
2023-04-16T04:51:16.328Z,101889.41
2023-04-16T04:53:42.651Z,101882.28
2023-04-16T04:56:12.732Z,101896.69
2023-04-16T04:58:39.509Z,101897.69
2023-04-16T05:01:06.112Z,101896.16
2023-04-16T05:03:32.512Z,101896.00
2023-04-16T05:05:58.900Z,101891.72
2023-04-16T05:08:25.162Z,101900.03
2023-04-16T05:10:51.567Z,101906.72
2023-04-16T05:13:17.909Z,101912.34
2023-04-16T05:15:45.662Z,101902.06
2023-04-16T05:18:11.964Z,101905.81
2023-04-16T05:20:38.273Z,101911.13
2023-04-16T05:23:04.567Z,101908.44
2023-04-16T05:25:30.946Z,101909.34
2023-04-16T05:27:57.271Z,101912.75
2023-04-16T05:30:23.566Z,101914.66
2023-04-16T05:32:49.932Z,101920.19
2023-04-16T05:35:17.611Z,101921.13
2023-04-16T05:37:44.164Z,101924.25
2023-04-16T05:40:12.111Z,101919.81
2023-04-16T05:42:38.408Z,101925.59
2023-04-16T05:45:05.071Z,101924.06
2023-04-16T05:47:31.449Z,101930.00
2023-04-16T05:49:57.756Z,101937.66
2023-04-16T05:52:24.065Z,101942.66
2023-04-16T05:54:50.476Z,101955.78
2023-04-16T05:57:16.916Z,101945.56
2023-04-16T05:59:43.455Z,101939.31
2023-04-16T06:02:09.880Z,101941.72
2023-04-16T06:04:36.194Z,101945.34
2023-04-16T06:07:02.630Z,101948.59
2023-04-16T06:09:29.540Z,101954.50
2023-04-16T06:11:56.305Z,101953.00
2023-04-16T06:14:22.578Z,101958.38
2023-04-16T06:16:49.229Z,101961.53
2023-04-16T06:19:15.556Z,101961.41
2023-04-16T06:21:41.883Z,101959.03
2023-04-16T06:24:08.238Z,101948.28
2023-04-16T06:26:34.560Z,101962.75
2023-04-16T06:29:01.011Z,101978.63
2023-04-16T06:31:27.384Z,101975.34
2023-04-16T06:33:53.665Z,101972.97
2023-04-16T06:36:20.001Z,101974.66
2023-04-16T06:38:46.461Z,101975.56
2023-04-16T06:41:13.695Z,101987.63
2023-04-16T06:43:39.993Z,101993.09
2023-04-16T06:46:06.308Z,101972.66
2023-04-16T06:48:32.602Z,101986.34
2023-04-16T06:50:58.934Z,101981.03
2023-04-16T06:53:25.249Z,101983.25
2023-04-16T06:55:51.672Z,101991.78
2023-04-16T06:58:17.966Z,101993.13
2023-04-16T07:00:44.308Z,101994.19
2023-04-16T07:03:10.785Z,101982.91
2023-04-16T07:05:37.273Z,102000.31
2023-04-16T07:08:03.604Z,101995.22
2023-04-16T07:10:29.941Z,101997.50
2023-04-16T07:12:56.273Z,102002.28
2023-04-16T07:15:22.611Z,102003.41
2023-04-16T07:17:49.014Z,101999.91
2023-04-16T07:20:15.315Z,101999.25
2023-04-16T07:22:41.652Z,101996.81
2023-04-16T07:25:08.220Z,102005.16
2023-04-16T07:27:34.565Z,102000.22
2023-04-16T07:30:00.893Z,102006.16
2023-04-16T07:32:27.231Z,101996.53
2023-04-16T07:34:53.550Z,102008.59
2023-04-16T07:37:19.854Z,102003.94
2023-04-16T07:39:47.221Z,102004.97
2023-04-16T07:42:13.726Z,102012.13
2023-04-16T07:44:40.024Z,102008.28
2023-04-16T07:47:06.382Z,102020.06
2023-04-16T07:49:32.676Z,102029.50
2023-04-16T07:51:59.001Z,102024.13
2023-04-16T07:54:27.347Z,102023.50
2023-04-16T07:56:55.360Z,102029.53
2023-04-16T07:59:23.315Z,102029.41
2023-04-16T08:01:50.313Z,102032.88
2023-04-16T08:04:23.477Z,102034.81
2023-04-16T08:06:50.765Z,102035.25
2023-04-16T08:09:17.339Z,102035.72
2023-04-16T08:11:43.644Z,102041.22
2023-04-16T08:14:10.062Z,102037.06
2023-04-16T08:16:36.663Z,102040.53
2023-04-16T08:19:03.608Z,102039.47
2023-04-16T08:21:30.703Z,102046.50
2023-04-16T08:23:57.132Z,102043.25
2023-04-16T08:26:23.507Z,102050.69
2023-04-16T08:28:49.928Z,102055.22
2023-04-16T08:31:16.425Z,102052.34
2023-04-16T08:33:43.305Z,102054.16
2023-04-16T08:36:09.648Z,102051.53
2023-04-16T08:38:35.998Z,102059.06
2023-04-16T08:41:03.164Z,102067.59
2023-04-16T08:43:29.471Z,102060.75
2023-04-16T08:45:56.569Z,102070.97
2023-04-16T08:48:22.921Z,102068.31
2023-04-16T08:50:49.439Z,102072.56
2023-04-16T08:53:18.723Z,102068.97
2023-04-16T08:55:48.960Z,102078.53
2023-04-16T08:58:16.087Z,102075.84
2023-04-16T09:00:42.420Z,102069.69
2023-04-16T09:03:09.268Z,102076.78
2023-04-16T09:05:35.619Z,102080.75
2023-04-16T09:08:02.028Z,102092.75
2023-04-16T09:10:28.305Z,102087.69
2023-04-16T09:12:55.874Z,102089.03
2023-04-16T09:15:22.504Z,102078.38
2023-04-16T09:17:48.843Z,102076.50
2023-04-16T09:20:15.529Z,102087.50
2023-04-16T09:22:41.886Z,102077.78
2023-04-16T09:25:08.469Z,102082.28
2023-04-16T09:27:34.794Z,102082.88
2023-04-16T09:30:01.354Z,102081.97
2023-04-16T09:32:28.483Z,102086.38
2023-04-16T09:34:55.884Z,102094.50
2023-04-16T09:37:22.238Z,102085.88
2023-04-16T09:39:57.683Z,102101.59
2023-04-16T09:42:27.456Z,102094.75
2023-04-16T09:44:59.406Z,102099.63
2023-04-16T09:47:27.225Z,102097.41
2023-04-16T09:49:53.692Z,102103.28
2023-04-16T09:52:21.646Z,102103.72
2023-04-16T09:54:51.987Z,102110.19
2023-04-16T09:57:20.661Z,102108.59
2023-04-16T09:59:47.230Z,102111.75
2023-04-16T10:02:15.345Z,102112.94
2023-04-16T10:05:06.429Z,102112.09
2023-04-16T10:07:36.191Z,102115.72
2023-04-16T10:10:03.012Z,102114.16
2023-04-16T10:12:29.738Z,102116.16
2023-04-16T10:14:56.133Z,102123.31
2023-04-16T10:17:24.062Z,102132.81
2023-04-16T10:19:50.914Z,102129.22
2023-04-16T10:22:17.741Z,102131.53
2023-04-16T10:24:44.386Z,102143.44
2023-04-16T10:27:11.187Z,102133.84
2023-04-16T10:29:37.499Z,102133.88
2023-04-16T10:32:03.848Z,102131.69
2023-04-16T10:34:31.180Z,102137.53
2023-04-16T10:36:57.563Z,102130.28
2023-04-16T10:39:24.400Z,102136.13
2023-04-16T10:41:50.988Z,102128.16
2023-04-16T10:44:18.380Z,102136.53
2023-04-16T10:46:46.397Z,102128.75
2023-04-16T10:49:13.822Z,102133.09
2023-04-16T10:51:40.207Z,102132.56
2023-04-16T10:54:11.161Z,102126.25
2023-04-16T10:56:37.510Z,102127.47
2023-04-16T10:59:07.457Z,102137.88
2023-04-16T11:01:34.946Z,102139.38
2023-04-16T11:04:02.275Z,102143.94
2023-04-16T11:06:28.827Z,102130.19
2023-04-16T11:08:55.568Z,102130.31
2023-04-16T11:11:21.964Z,102131.75
2023-04-16T11:13:48.266Z,102129.03
2023-04-16T11:16:16.259Z,102135.06
2023-04-16T11:18:51.001Z,102138.03
2023-04-16T11:21:18.308Z,102128.56
2023-04-16T11:23:52.651Z,102128.16
2023-04-16T11:26:29.406Z,102127.59
2023-04-16T11:28:57.177Z,102127.38
2023-04-16T11:31:24.623Z,102124.22
2023-04-16T11:33:51.111Z,102130.72
2023-04-16T11:36:17.611Z,102123.22
2023-04-16T11:38:44.145Z,102122.03
2023-04-16T11:41:11.178Z,102117.16
2023-04-16T11:43:37.673Z,102126.84
2023-04-16T11:46:16.732Z,102126.88
2023-04-16T11:48:55.775Z,102131.97
2023-04-16T11:51:23.329Z,102133.81
2023-04-16T11:53:52.742Z,102137.66
2023-04-16T11:56:30.633Z,102160.19
2023-04-16T11:59:10.253Z,102136.69
2023-04-16T12:01:37.825Z,102139.19
2023-04-16T12:04:04.907Z,102140.34
2023-04-16T12:06:32.777Z,102136.50
2023-04-16T12:08:59.666Z,102144.59
2023-04-16T12:11:41.447Z,102138.25
2023-04-16T12:14:11.219Z,102142.84
2023-04-16T12:16:37.701Z,102153.06
2023-04-16T12:19:04.445Z,102147.59
2023-04-16T12:21:41.117Z,102138.53
2023-04-16T12:24:08.513Z,102145.81
2023-04-16T12:26:42.876Z,102142.47
2023-04-16T12:29:15.761Z,102143.31
2023-04-16T12:31:42.079Z,102148.84
2023-04-16T12:34:08.460Z,102142.47
2023-04-16T12:36:34.873Z,102155.13
2023-04-16T12:39:01.608Z,102163.69
2023-04-16T12:41:27.930Z,102137.88
2023-04-16T12:44:02.983Z,102147.44
2023-04-16T12:46:29.647Z,102149.78
2023-04-16T12:48:57.561Z,102144.84
2023-04-16T12:51:23.933Z,102154.81
2023-04-16T12:53:50.282Z,102151.03
2023-04-16T12:56:16.716Z,102146.41
2023-04-16T12:58:43.089Z,102150.09
2023-04-16T13:01:09.394Z,102152.06
2023-04-16T13:03:37.246Z,102149.88
2023-04-16T13:06:03.903Z,102163.25
2023-04-16T13:08:30.707Z,102153.94
2023-04-16T13:10:57.154Z,102146.44
2023-04-16T13:13:23.899Z,102148.97
2023-04-16T13:15:50.360Z,102162.41
2023-04-16T13:18:16.825Z,102162.38
2023-04-16T13:20:43.753Z,102148.53
2023-04-16T13:23:10.158Z,102149.00
2023-04-16T13:25:36.454Z,102149.44
2023-04-16T13:28:02.763Z,102156.97
2023-04-16T13:30:29.457Z,102155.72
2023-04-16T13:32:56.392Z,102165.38
2023-04-16T13:35:22.819Z,102157.88
2023-04-16T13:37:49.112Z,102162.56
2023-04-16T13:40:15.573Z,102155.97
2023-04-16T13:42:42.252Z,102156.03
2023-04-16T13:45:09.494Z,102153.94
2023-04-16T13:47:36.459Z,102153.13
2023-04-16T13:50:02.838Z,102152.31
2023-04-16T13:52:29.189Z,102148.09
2023-04-16T13:54:55.537Z,102160.72
2023-04-16T13:57:22.062Z,102157.25
2023-04-16T13:59:48.362Z,102169.66
2023-04-16T14:02:14.975Z,102162.59
2023-04-16T14:04:41.974Z,102156.22
2023-04-16T14:07:08.420Z,102161.31
2023-04-16T14:09:34.762Z,102155.00
2023-04-16T14:12:01.110Z,102151.00
2023-04-16T14:14:27.521Z,102157.59
2023-04-16T14:16:58.106Z,102153.19
2023-04-16T14:19:24.514Z,102155.88
2023-04-16T14:21:50.851Z,102156.94
2023-04-16T14:24:17.188Z,102148.50
2023-04-16T14:26:44.883Z,102163.38
2023-04-16T14:29:11.365Z,102164.78
2023-04-16T14:31:37.886Z,102162.09
2023-04-16T14:34:04.382Z,102165.28
2023-04-16T14:36:31.266Z,102157.91
2023-04-16T14:38:57.594Z,102155.94
2023-04-16T14:41:24.110Z,102157.41
2023-04-16T14:43:50.459Z,102158.28
2023-04-16T14:46:17.673Z,102154.19
2023-04-16T14:48:44.293Z,102153.59
2023-04-16T14:51:10.795Z,102159.34
2023-04-16T14:53:38.666Z,102166.16
2023-04-16T14:56:05.828Z,102159.34
2023-04-16T14:58:32.261Z,102160.31
2023-04-16T15:00:58.716Z,102159.69
2023-04-16T15:03:25.577Z,102159.34
2023-04-16T15:05:55.752Z,102161.16
2023-04-16T15:08:22.589Z,102157.47
2023-04-16T15:10:48.962Z,102163.63
2023-04-16T15:13:15.557Z,102168.78
2023-04-16T15:15:41.910Z,102157.47
2023-04-16T15:18:08.436Z,102161.94
2023-04-16T15:20:35.302Z,102169.50
2023-04-16T15:23:01.750Z,102159.66
2023-04-16T15:25:28.078Z,102165.47
2023-04-16T15:27:54.463Z,102167.66
2023-04-16T15:30:20.969Z,102166.81
2023-04-16T15:32:47.931Z,102181.97
2023-04-16T15:35:14.367Z,102169.28
2023-04-16T15:37:40.912Z,102175.56
2023-04-16T15:40:07.860Z,102168.09
2023-04-16T15:42:34.323Z,102173.69
2023-04-16T15:45:00.776Z,102174.84
2023-04-16T15:47:27.080Z,102170.66
2023-04-16T15:49:53.520Z,102172.69
2023-04-16T15:52:20.345Z,102167.28
2023-04-16T15:54:46.821Z,102168.59
2023-04-16T15:57:13.162Z,102175.31
2023-04-16T15:59:39.522Z,102177.63
2023-04-16T16:02:06.679Z,102174.94
2023-04-16T16:04:33.245Z,102174.94
2023-04-16T16:06:59.633Z,102181.44
2023-04-16T16:09:26.572Z,102181.09
2023-04-16T16:11:54.358Z,102186.81
2023-04-16T16:14:21.202Z,102184.06
2023-04-16T16:16:47.653Z,102188.59
2023-04-16T16:19:14.188Z,102189.75
2023-04-16T16:21:40.986Z,102189.56
2023-04-16T16:24:07.709Z,102185.34
2023-04-16T16:26:34.120Z,102195.75
2023-04-16T16:29:01.382Z,102200.84
2023-04-16T16:31:27.833Z,102199.34
2023-04-16T16:33:54.196Z,102196.25
2023-04-16T16:36:20.530Z,102186.38
2023-04-16T16:38:47.421Z,102191.78
2023-04-16T16:41:14.447Z,102189.75
2023-04-16T16:43:40.826Z,102189.22
2023-04-16T16:46:07.673Z,102198.22
2023-04-16T16:48:34.178Z,102197.47
2023-04-16T16:51:00.636Z,102197.31
2023-04-16T16:53:27.339Z,102202.34
2023-04-16T16:55:53.773Z,102202.97
2023-04-16T16:58:20.810Z,102204.03
2023-04-16T17:00:47.265Z,102215.97
2023-04-16T17:03:17.113Z,102203.63
2023-04-16T17:05:43.772Z,102209.94
2023-04-16T17:08:10.401Z,102203.28
2023-04-16T17:10:36.883Z,102209.78
2023-04-16T17:13:03.298Z,102212.31
2023-04-16T17:15:29.739Z,102216.94
2023-04-16T17:17:57.162Z,102214.44
2023-04-16T17:20:23.956Z,102221.31
2023-04-16T17:22:51.184Z,102222.53
2023-04-16T17:25:17.630Z,102230.44
2023-04-16T17:27:44.350Z,102221.19
2023-04-16T17:30:11.001Z,102216.75
2023-04-16T17:32:37.565Z,102224.44
2023-04-16T17:35:04.575Z,102230.03
2023-04-16T17:37:31.040Z,102232.03
2023-04-16T17:39:57.470Z,102236.53
2023-04-16T17:42:24.913Z,102234.38
2023-04-16T17:44:51.434Z,102241.75
2023-04-16T17:47:17.889Z,102244.16
2023-04-16T17:49:44.367Z,102241.00
2023-04-16T17:52:10.851Z,102244.84
2023-04-16T17:54:37.236Z,102253.94
2023-04-16T17:57:03.798Z,102246.81
2023-04-16T17:59:30.232Z,102239.09
2023-04-16T18:01:56.849Z,102251.69
2023-04-16T18:04:23.548Z,102255.59
2023-04-16T18:06:50.439Z,102262.00
2023-04-16T18:09:16.875Z,102262.91
2023-04-16T18:11:43.275Z,102258.47
2023-04-16T18:14:11.602Z,102261.03
2023-04-16T18:16:38.292Z,102261.91
2023-04-16T18:19:05.628Z,102266.56
2023-04-16T18:21:32.124Z,102270.09
2023-04-16T18:24:00.864Z,102277.59
2023-04-16T18:26:29.631Z,102278.59
2023-04-16T18:28:56.536Z,102277.53
2023-04-16T18:31:22.964Z,102287.31
2023-04-16T18:33:57.513Z,102277.88
2023-04-16T18:36:26.420Z,102274.97
2023-04-16T18:39:01.756Z,102285.41
2023-04-16T18:41:29.412Z,102292.84
2023-04-16T18:43:56.051Z,102282.34
2023-04-16T18:46:22.547Z,102290.53
2023-04-16T18:48:49.024Z,102294.78
2023-04-16T18:51:16.518Z,102297.06
2023-04-16T18:53:44.348Z,102299.94
2023-04-16T18:56:11.599Z,102304.94
2023-04-16T18:58:38.093Z,102311.41
2023-04-16T19:01:04.868Z,102310.84
2023-04-16T19:03:32.380Z,102315.63
2023-04-16T19:05:58.955Z,102314.75
2023-04-16T19:08:25.435Z,102315.91
2023-04-16T19:10:51.952Z,102321.63
2023-04-16T19:13:18.694Z,102318.88
2023-04-16T19:15:45.430Z,102317.16
2023-04-16T19:18:11.877Z,102320.16
2023-04-16T19:20:38.335Z,102330.91
2023-04-16T19:23:05.608Z,102334.75
2023-04-16T19:25:32.237Z,102330.88
2023-04-16T19:27:58.684Z,102323.75
2023-04-16T19:30:25.131Z,102330.25
2023-04-16T19:32:53.235Z,102327.59
2023-04-16T19:35:21.128Z,102332.13
2023-04-16T19:37:47.618Z,102334.34
2023-04-16T19:40:14.185Z,102346.69
2023-04-16T19:42:40.956Z,102337.28
2023-04-16T19:45:07.704Z,102342.09
2023-04-16T19:47:34.148Z,102343.28
2023-04-16T19:50:00.793Z,102337.09
2023-04-16T19:52:27.310Z,102341.16
2023-04-16T19:54:53.704Z,102331.91
2023-04-16T19:57:20.312Z,102336.59
2023-04-16T19:59:46.719Z,102342.19
2023-04-16T20:02:13.188Z,102333.75
2023-04-16T20:04:39.613Z,102336.59
2023-04-16T20:07:06.039Z,102336.81
2023-04-16T20:09:32.440Z,102339.66
2023-04-16T20:11:58.891Z,102338.28
2023-04-16T20:14:25.415Z,102335.84
2023-04-16T20:16:52.184Z,102338.78
2023-04-16T20:19:19.557Z,102345.88
2023-04-16T20:21:46.089Z,102349.72
2023-04-16T20:24:12.570Z,102349.94
2023-04-16T20:26:38.957Z,102343.78
2023-04-16T20:29:05.396Z,102347.41
2023-04-16T20:31:31.779Z,102356.84
2023-04-16T20:33:58.136Z,102359.03
2023-04-16T20:36:24.471Z,102349.78
2023-04-16T20:38:53.802Z,102351.09
2023-04-16T20:41:21.159Z,102360.44
2023-04-16T20:43:50.074Z,102350.88
2023-04-16T20:46:16.964Z,102354.03
2023-04-16T20:48:43.271Z,102353.56
2023-04-16T20:51:09.677Z,102361.91
2023-04-16T20:53:39.154Z,102355.75
2023-04-16T20:56:06.713Z,102361.25
2023-04-16T20:58:33.395Z,102360.69
2023-04-16T21:00:59.715Z,102369.63
2023-04-16T21:03:26.388Z,102364.97
2023-04-16T21:05:53.425Z,102372.16
2023-04-16T21:08:20.039Z,102367.13
2023-04-16T21:10:46.367Z,102376.88
2023-04-16T21:13:12.833Z,102369.00
2023-04-16T21:15:39.671Z,102368.09
2023-04-16T21:18:06.264Z,102375.47
2023-04-16T21:20:32.722Z,102368.78
2023-04-16T21:22:59.156Z,102373.59
2023-04-16T21:25:25.753Z,102372.53
2023-04-16T21:27:52.087Z,102377.13
2023-04-16T21:30:18.392Z,102377.34
2023-04-16T21:32:44.834Z,102376.72
2023-04-16T21:35:11.392Z,102374.84
2023-04-16T21:37:37.755Z,102372.00
2023-04-16T21:40:06.988Z,102372.09
2023-04-16T21:42:33.931Z,102369.84
2023-04-16T21:45:00.235Z,102374.53
2023-04-16T21:47:26.563Z,102374.88
2023-04-16T21:49:52.841Z,102373.34
2023-04-16T21:52:19.142Z,102376.34
2023-04-16T21:54:45.582Z,102380.69
2023-04-16T21:57:11.922Z,102378.88
2023-04-16T21:59:38.441Z,102367.88
2023-04-16T22:02:05.152Z,102385.22
2023-04-16T22:04:39.000Z,102386.00
2023-04-16T22:07:09.171Z,102382.19
2023-04-16T22:09:36.206Z,102377.84
2023-04-16T22:12:02.510Z,102379.03
2023-04-16T22:14:30.072Z,102376.66
2023-04-16T22:16:56.472Z,102383.63
2023-04-16T22:19:22.876Z,102384.59
2023-04-16T22:21:49.251Z,102380.50
2023-04-16T22:24:15.636Z,102377.13
2023-04-16T22:26:41.917Z,102382.50
2023-04-16T22:29:08.227Z,102390.22
2023-04-16T22:31:34.577Z,102380.63
2023-04-16T22:34:02.757Z,102386.94
2023-04-16T22:36:29.756Z,102380.38
2023-04-16T22:38:56.173Z,102391.81
2023-04-16T22:41:22.907Z,102385.38
2023-04-16T22:43:50.605Z,102382.28
2023-04-16T22:46:19.897Z,102385.41
2023-04-16T22:48:46.292Z,102388.72
2023-04-16T22:51:12.636Z,102387.13
2023-04-16T22:53:38.941Z,102382.91
2023-04-16T22:56:05.400Z,102380.47
2023-04-16T22:58:31.723Z,102385.66
2023-04-16T23:00:59.381Z,102384.72
2023-04-16T23:03:25.970Z,102383.44
2023-04-16T23:05:52.374Z,102381.53
2023-04-16T23:08:18.686Z,102378.47
2023-04-16T23:10:45.213Z,102388.69
2023-04-16T23:13:11.575Z,102382.28
2023-04-16T23:15:37.960Z,102381.91
2023-04-16T23:18:04.351Z,102386.91
2023-04-16T23:20:30.762Z,102378.34
2023-04-16T23:22:57.052Z,102378.97
2023-04-16T23:25:23.568Z,102375.13
2023-04-16T23:27:49.911Z,102386.84
2023-04-16T23:30:16.629Z,102382.16
2023-04-16T23:32:42.976Z,102382.53
2023-04-16T23:35:09.497Z,102386.81
2023-04-16T23:37:35.812Z,102402.66
2023-04-16T23:40:02.576Z,102398.78
2023-04-16T23:42:28.886Z,102383.69
2023-04-16T23:44:55.308Z,102390.72
2023-04-16T23:47:21.673Z,102386.84
2023-04-16T23:49:47.960Z,102392.53
2023-04-16T23:52:14.289Z,102391.41
2023-04-16T23:54:40.598Z,102390.50
2023-04-16T23:57:06.916Z,102386.25
2023-04-16T23:59:33.222Z,102397.63
